sensor_id;sensor_type;location;lat;lon;timestamp;temperature;humidity
44509;DHT22;30214;52.246;14.408;2022-12-29T00:01:50;7.90;99.90
44509;DHT22;30214;52.246;14.408;2022-12-29T00:04:21;7.80;99.90
44509;DHT22;30214;52.246;14.408;2022-12-29T00:06:52;7.80;99.90
44509;DHT22;30214;52.246;14.408;2022-12-29T00:09:21;7.70;99.90
44509;DHT22;30214;52.246;14.408;2022-12-29T00:11:49;7.60;99.90
44509;DHT22;30214;52.246;14.408;2022-12-29T00:14:17;7.60;99.90
44509;DHT22;30214;52.246;14.408;2022-12-29T00:17:03;7.50;99.90
44509;DHT22;30214;52.246;14.408;2022-12-29T00:19:30;7.40;99.90
44509;DHT22;30214;52.246;14.408;2022-12-29T00:22:15;7.40;99.90
44509;DHT22;30214;52.246;14.408;2022-12-29T00:25:07;7.30;99.90
44509;DHT22;30214;52.246;14.408;2022-12-29T00:28:00;7.30;99.90
44509;DHT22;30214;52.246;14.408;2022-12-29T00:30:46;7.30;99.90
44509;DHT22;30214;52.246;14.408;2022-12-29T00:33:33;7.20;99.90
44509;DHT22;30214;52.246;14.408;2022-12-29T00:36:20;7.20;99.90
44509;DHT22;30214;52.246;14.408;2022-12-29T00:38:52;7.00;99.90
44509;DHT22;30214;52.246;14.408;2022-12-29T00:41:40;7.00;99.90
44509;DHT22;30214;52.246;14.408;2022-12-29T00:44:25;7.00;99.90
44509;DHT22;30214;52.246;14.408;2022-12-29T00:46:58;7.00;99.90
44509;DHT22;30214;52.246;14.408;2022-12-29T00:49:30;7.00;99.90
44509;DHT22;30214;52.246;14.408;2022-12-29T00:51:59;7.00;99.90
44509;DHT22;30214;52.246;14.408;2022-12-29T00:54:31;6.90;99.90
44509;DHT22;30214;52.246;14.408;2022-12-29T00:57:00;7.00;99.90
44509;DHT22;30214;52.246;14.408;2022-12-29T00:59:28;7.00;99.90
44509;DHT22;30214;52.246;14.408;2022-12-29T01:01:56;7.00;99.90
44509;DHT22;30214;52.246;14.408;2022-12-29T01:04:25;6.90;99.90
44509;DHT22;30214;52.246;14.408;2022-12-29T01:06:58;6.90;99.90
44509;DHT22;30214;52.246;14.408;2022-12-29T01:09:26;6.90;99.90
44509;DHT22;30214;52.246;14.408;2022-12-29T01:13:12;6.90;99.90
44509;DHT22;30214;52.246;14.408;2022-12-29T01:15:50;6.90;99.90
44509;DHT22;30214;52.246;14.408;2022-12-29T01:18:29;6.90;99.90
44509;DHT22;30214;52.246;14.408;2022-12-29T01:21:06;6.90;99.90
44509;DHT22;30214;52.246;14.408;2022-12-29T01:23:36;6.90;99.90
44509;DHT22;30214;52.246;14.408;2022-12-29T01:26:19;6.80;99.90
44509;DHT22;30214;52.246;14.408;2022-12-29T01:28:52;6.80;99.90
44509;DHT22;30214;52.246;14.408;2022-12-29T01:31:24;6.80;99.90
44509;DHT22;30214;52.246;14.408;2022-12-29T01:33:53;6.90;99.90
44509;DHT22;30214;52.246;14.408;2022-12-29T01:36:39;6.90;99.90
44509;DHT22;30214;52.246;14.408;2022-12-29T01:39:18;7.00;99.90
44509;DHT22;30214;52.246;14.408;2022-12-29T01:41:49;7.00;99.90
44509;DHT22;30214;52.246;14.408;2022-12-29T01:44:45;6.90;99.90
44509;DHT22;30214;52.246;14.408;2022-12-29T01:50:16;7.00;99.90
44509;DHT22;30214;52.246;14.408;2022-12-29T01:52:55;7.00;99.90
44509;DHT22;30214;52.246;14.408;2022-12-29T01:59:16;7.10;99.90
44509;DHT22;30214;52.246;14.408;2022-12-29T02:01:48;7.10;99.90
44509;DHT22;30214;52.246;14.408;2022-12-29T02:04:17;7.10;99.90
44509;DHT22;30214;52.246;14.408;2022-12-29T02:06:48;7.10;99.90
44509;DHT22;30214;52.246;14.408;2022-12-29T02:09:19;7.10;99.90
44509;DHT22;30214;52.246;14.408;2022-12-29T02:11:51;7.20;99.90
44509;DHT22;30214;52.246;14.408;2022-12-29T02:14:19;7.20;99.90
44509;DHT22;30214;52.246;14.408;2022-12-29T02:17:00;7.20;99.90
44509;DHT22;30214;52.246;14.408;2022-12-29T02:23:36;7.30;99.90
44509;DHT22;30214;52.246;14.408;2022-12-29T02:26:34;7.30;99.90
44509;DHT22;30214;52.246;14.408;2022-12-29T02:29:27;7.30;99.90
44509;DHT22;30214;52.246;14.408;2022-12-29T02:32:11;7.20;99.90
44509;DHT22;30214;52.246;14.408;2022-12-29T02:34:49;7.20;99.90
44509;DHT22;30214;52.246;14.408;2022-12-29T02:37:26;7.30;99.90
44509;DHT22;30214;52.246;14.408;2022-12-29T02:40:06;7.30;99.90
44509;DHT22;30214;52.246;14.408;2022-12-29T02:42:44;7.30;99.90
44509;DHT22;30214;52.246;14.408;2022-12-29T02:45:20;7.30;99.90
44509;DHT22;30214;52.246;14.408;2022-12-29T02:47:56;7.30;99.90
44509;DHT22;30214;52.246;14.408;2022-12-29T02:50:32;7.40;99.90
44509;DHT22;30214;52.246;14.408;2022-12-29T02:53:02;7.40;99.90
44509;DHT22;30214;52.246;14.408;2022-12-29T02:55:33;7.40;99.90
44509;DHT22;30214;52.246;14.408;2022-12-29T02:58:21;7.40;99.90
44509;DHT22;30214;52.246;14.408;2022-12-29T03:01:02;7.40;99.90
44509;DHT22;30214;52.246;14.408;2022-12-29T03:03:48;7.40;99.90
44509;DHT22;30214;52.246;14.408;2022-12-29T03:06:31;7.40;99.90
44509;DHT22;30214;52.246;14.408;2022-12-29T03:09:10;7.40;99.90
44509;DHT22;30214;52.246;14.408;2022-12-29T03:11:46;7.40;99.90
44509;DHT22;30214;52.246;14.408;2022-12-29T03:14:44;7.50;99.90
44509;DHT22;30214;52.246;14.408;2022-12-29T03:17:41;7.50;99.90
44509;DHT22;30214;52.246;14.408;2022-12-29T03:20:22;7.50;99.90
44509;DHT22;30214;52.246;14.408;2022-12-29T03:22:58;7.60;99.90
44509;DHT22;30214;52.246;14.408;2022-12-29T03:25:31;7.60;99.90
44509;DHT22;30214;52.246;14.408;2022-12-29T03:28:06;7.60;99.90
44509;DHT22;30214;52.246;14.408;2022-12-29T03:30:41;7.70;99.90
44509;DHT22;30214;52.246;14.408;2022-12-29T03:33:13;7.70;99.90
44509;DHT22;30214;52.246;14.408;2022-12-29T03:35:45;7.70;99.90
44509;DHT22;30214;52.246;14.408;2022-12-29T03:38:15;7.80;99.90
44509;DHT22;30214;52.246;14.408;2022-12-29T03:40:48;7.80;99.90
44509;DHT22;30214;52.246;14.408;2022-12-29T03:43:18;7.80;99.90
44509;DHT22;30214;52.246;14.408;2022-12-29T03:45:46;7.80;99.90
44509;DHT22;30214;52.246;14.408;2022-12-29T03:48:14;7.90;99.90
44509;DHT22;30214;52.246;14.408;2022-12-29T03:50:44;7.90;99.90
44509;DHT22;30214;52.246;14.408;2022-12-29T03:53:11;7.90;99.90
44509;DHT22;30214;52.246;14.408;2022-12-29T03:55:38;7.90;99.90
44509;DHT22;30214;52.246;14.408;2022-12-29T03:58:07;7.90;99.90
44509;DHT22;30214;52.246;14.408;2022-12-29T04:00:52;7.90;99.90
44509;DHT22;30214;52.246;14.408;2022-12-29T04:03:19;7.90;99.90
44509;DHT22;30214;52.246;14.408;2022-12-29T04:05:48;8.00;99.90
44509;DHT22;30214;52.246;14.408;2022-12-29T04:08:16;8.00;99.90
44509;DHT22;30214;52.246;14.408;2022-12-29T04:10:43;8.00;99.90
44509;DHT22;30214;52.246;14.408;2022-12-29T04:13:12;8.10;99.90
44509;DHT22;30214;52.246;14.408;2022-12-29T04:15:39;8.10;99.90
44509;DHT22;30214;52.246;14.408;2022-12-29T04:18:08;8.10;99.90
44509;DHT22;30214;52.246;14.408;2022-12-29T04:20:35;8.10;99.90
44509;DHT22;30214;52.246;14.408;2022-12-29T04:23:21;8.10;99.90
44509;DHT22;30214;52.246;14.408;2022-12-29T04:25:48;8.20;99.90
44509;DHT22;30214;52.246;14.408;2022-12-29T04:28:16;8.20;99.90
44509;DHT22;30214;52.246;14.408;2022-12-29T04:30:52;8.20;99.90
44509;DHT22;30214;52.246;14.408;2022-12-29T04:33:22;8.20;99.90
44509;DHT22;30214;52.246;14.408;2022-12-29T04:35:50;8.20;99.90
44509;DHT22;30214;52.246;14.408;2022-12-29T04:38:22;8.30;99.90
44509;DHT22;30214;52.246;14.408;2022-12-29T04:40:51;8.40;99.90
44509;DHT22;30214;52.246;14.408;2022-12-29T04:43:22;8.40;99.90
44509;DHT22;30214;52.246;14.408;2022-12-29T04:46:13;8.40;99.90
44509;DHT22;30214;52.246;14.408;2022-12-29T04:48:58;8.30;99.90
44509;DHT22;30214;52.246;14.408;2022-12-29T04:51:48;8.40;99.90
44509;DHT22;30214;52.246;14.408;2022-12-29T04:54:18;8.40;99.90
44509;DHT22;30214;52.246;14.408;2022-12-29T04:56:53;8.40;99.90
44509;DHT22;30214;52.246;14.408;2022-12-29T04:59:21;8.40;99.90
44509;DHT22;30214;52.246;14.408;2022-12-29T05:01:52;8.40;99.90
44509;DHT22;30214;52.246;14.408;2022-12-29T05:04:20;8.50;99.90
44509;DHT22;30214;52.246;14.408;2022-12-29T05:06:47;8.50;99.90
44509;DHT22;30214;52.246;14.408;2022-12-29T05:09:18;8.50;99.90
44509;DHT22;30214;52.246;14.408;2022-12-29T05:11:45;8.50;99.90
44509;DHT22;30214;52.246;14.408;2022-12-29T05:14:13;8.50;99.90
44509;DHT22;30214;52.246;14.408;2022-12-29T05:16:42;8.50;99.90
44509;DHT22;30214;52.246;14.408;2022-12-29T05:19:10;8.50;99.90
44509;DHT22;30214;52.246;14.408;2022-12-29T05:21:38;8.50;99.90
44509;DHT22;30214;52.246;14.408;2022-12-29T05:24:07;8.50;99.90
44509;DHT22;30214;52.246;14.408;2022-12-29T05:26:36;8.50;99.90
44509;DHT22;30214;52.246;14.408;2022-12-29T05:29:29;8.50;99.90
44509;DHT22;30214;52.246;14.408;2022-12-29T05:31:57;8.50;99.90
44509;DHT22;30214;52.246;14.408;2022-12-29T05:34:24;8.60;99.90
44509;DHT22;30214;52.246;14.408;2022-12-29T05:36:51;8.60;99.90
44509;DHT22;30214;52.246;14.408;2022-12-29T05:39:19;8.70;99.90
44509;DHT22;30214;52.246;14.408;2022-12-29T05:41:53;8.70;99.90
44509;DHT22;30214;52.246;14.408;2022-12-29T05:44:55;8.80;99.90
44509;DHT22;30214;52.246;14.408;2022-12-29T05:47:42;8.80;99.90
44509;DHT22;30214;52.246;14.408;2022-12-29T05:50:24;8.90;99.90
44509;DHT22;30214;52.246;14.408;2022-12-29T05:53:10;8.90;99.90
44509;DHT22;30214;52.246;14.408;2022-12-29T05:55:38;8.90;99.90
44509;DHT22;30214;52.246;14.408;2022-12-29T05:58:07;8.90;99.90
44509;DHT22;30214;52.246;14.408;2022-12-29T06:00:34;9.00;99.90
44509;DHT22;30214;52.246;14.408;2022-12-29T06:03:04;9.00;99.90
44509;DHT22;30214;52.246;14.408;2022-12-29T06:05:31;9.00;99.90
44509;DHT22;30214;52.246;14.408;2022-12-29T06:07:58;9.00;99.90
44509;DHT22;30214;52.246;14.408;2022-12-29T06:10:27;9.00;99.90
44509;DHT22;30214;52.246;14.408;2022-12-29T06:13:01;9.00;99.90
44509;DHT22;30214;52.246;14.408;2022-12-29T06:15:32;8.90;99.90
44509;DHT22;30214;52.246;14.408;2022-12-29T06:17:59;8.90;99.90
44509;DHT22;30214;52.246;14.408;2022-12-29T06:20:26;8.90;99.90
44509;DHT22;30214;52.246;14.408;2022-12-29T06:22:53;8.90;99.90
44509;DHT22;30214;52.246;14.408;2022-12-29T06:25:22;8.90;99.90
44509;DHT22;30214;52.246;14.408;2022-12-29T06:27:49;9.00;99.90
44509;DHT22;30214;52.246;14.408;2022-12-29T06:30:16;8.90;99.90
44509;DHT22;30214;52.246;14.408;2022-12-29T06:32:52;9.00;99.90
44509;DHT22;30214;52.246;14.408;2022-12-29T06:35:20;9.00;99.90
44509;DHT22;30214;52.246;14.408;2022-12-29T06:37:49;9.00;99.90
44509;DHT22;30214;52.246;14.408;2022-12-29T06:40:17;9.10;99.90
44509;DHT22;30214;52.246;14.408;2022-12-29T06:43:07;9.10;99.90
44509;DHT22;30214;52.246;14.408;2022-12-29T06:45:45;9.20;99.90
44509;DHT22;30214;52.246;14.408;2022-12-29T06:48:16;9.20;99.90
44509;DHT22;30214;52.246;14.408;2022-12-29T06:50:43;9.20;99.90
44509;DHT22;30214;52.246;14.408;2022-12-29T06:53:10;9.30;99.90
44509;DHT22;30214;52.246;14.408;2022-12-29T06:55:37;9.30;99.90
44509;DHT22;30214;52.246;14.408;2022-12-29T06:58:04;9.30;99.90
44509;DHT22;30214;52.246;14.408;2022-12-29T07:00:31;9.30;99.90
44509;DHT22;30214;52.246;14.408;2022-12-29T07:02:58;9.40;99.90
44509;DHT22;30214;52.246;14.408;2022-12-29T07:05:27;9.50;99.90
44509;DHT22;30214;52.246;14.408;2022-12-29T07:07:57;9.50;99.90
44509;DHT22;30214;52.246;14.408;2022-12-29T07:10:24;9.50;99.90
44509;DHT22;30214;52.246;14.408;2022-12-29T07:12:51;9.50;99.90
44509;DHT22;30214;52.246;14.408;2022-12-29T07:15:18;9.60;99.90
44509;DHT22;30214;52.246;14.408;2022-12-29T07:17:45;9.60;99.90
44509;DHT22;30214;52.246;14.408;2022-12-29T07:20:15;9.60;99.90
44509;DHT22;30214;52.246;14.408;2022-12-29T07:22:43;9.60;99.90
44509;DHT22;30214;52.246;14.408;2022-12-29T07:25:12;9.70;99.90
44509;DHT22;30214;52.246;14.408;2022-12-29T07:27:39;9.70;99.90
44509;DHT22;30214;52.246;14.408;2022-12-29T07:30:07;9.70;99.90
44509;DHT22;30214;52.246;14.408;2022-12-29T07:32:35;9.70;99.90
44509;DHT22;30214;52.246;14.408;2022-12-29T07:35:03;9.70;99.90
44509;DHT22;30214;52.246;14.408;2022-12-29T07:37:30;9.70;99.90
44509;DHT22;30214;52.246;14.408;2022-12-29T07:39:59;9.60;99.90
44509;DHT22;30214;52.246;14.408;2022-12-29T07:42:27;9.60;99.90
44509;DHT22;30214;52.246;14.408;2022-12-29T07:44:58;9.60;99.90
44509;DHT22;30214;52.246;14.408;2022-12-29T07:47:47;9.60;99.90
44509;DHT22;30214;52.246;14.408;2022-12-29T07:50:16;9.70;99.90
44509;DHT22;30214;52.246;14.408;2022-12-29T07:52:43;9.60;99.90
44509;DHT22;30214;52.246;14.408;2022-12-29T07:55:11;9.70;99.90
44509;DHT22;30214;52.246;14.408;2022-12-29T07:57:38;9.70;99.90
44509;DHT22;30214;52.246;14.408;2022-12-29T08:00:06;9.80;99.90
44509;DHT22;30214;52.246;14.408;2022-12-29T08:02:38;9.80;99.90
44509;DHT22;30214;52.246;14.408;2022-12-29T08:05:06;9.70;99.90
44509;DHT22;30214;52.246;14.408;2022-12-29T08:07:33;9.70;99.90
44509;DHT22;30214;52.246;14.408;2022-12-29T08:10:00;9.70;99.90
44509;DHT22;30214;52.246;14.408;2022-12-29T08:12:29;9.70;99.90
44509;DHT22;30214;52.246;14.408;2022-12-29T08:14:56;9.70;99.90
44509;DHT22;30214;52.246;14.408;2022-12-29T08:17:23;9.70;99.90
44509;DHT22;30214;52.246;14.408;2022-12-29T08:19:50;9.70;99.90
44509;DHT22;30214;52.246;14.408;2022-12-29T08:22:17;9.70;99.90
44509;DHT22;30214;52.246;14.408;2022-12-29T08:24:44;9.70;99.90
44509;DHT22;30214;52.246;14.408;2022-12-29T08:27:11;9.70;99.90
44509;DHT22;30214;52.246;14.408;2022-12-29T08:29:39;9.80;99.90
44509;DHT22;30214;52.246;14.408;2022-12-29T08:32:07;9.80;99.90
44509;DHT22;30214;52.246;14.408;2022-12-29T08:34:34;9.80;99.90
44509;DHT22;30214;52.246;14.408;2022-12-29T08:37:01;9.80;99.90
44509;DHT22;30214;52.246;14.408;2022-12-29T08:39:28;9.80;99.90
44509;DHT22;30214;52.246;14.408;2022-12-29T08:41:55;9.80;99.90
44509;DHT22;30214;52.246;14.408;2022-12-29T08:44:22;9.90;99.90
44509;DHT22;30214;52.246;14.408;2022-12-29T08:46:51;10.00;99.90
44509;DHT22;30214;52.246;14.408;2022-12-29T08:49:18;10.10;99.90
44509;DHT22;30214;52.246;14.408;2022-12-29T08:51:46;10.20;99.90
44509;DHT22;30214;52.246;14.408;2022-12-29T08:54:14;10.20;99.90
44509;DHT22;30214;52.246;14.408;2022-12-29T08:56:41;10.30;99.90
44509;DHT22;30214;52.246;14.408;2022-12-29T08:59:08;10.40;99.90
44509;DHT22;30214;52.246;14.408;2022-12-29T09:01:36;10.40;99.90
44509;DHT22;30214;52.246;14.408;2022-12-29T09:04:07;10.60;99.90
44509;DHT22;30214;52.246;14.408;2022-12-29T09:06:34;10.60;99.90
44509;DHT22;30214;52.246;14.408;2022-12-29T09:09:02;10.70;99.90
44509;DHT22;30214;52.246;14.408;2022-12-29T09:11:30;10.70;99.90
44509;DHT22;30214;52.246;14.408;2022-12-29T09:13:57;10.70;99.90
44509;DHT22;30214;52.246;14.408;2022-12-29T09:16:24;10.70;99.90
44509;DHT22;30214;52.246;14.408;2022-12-29T09:18:54;10.80;99.90
44509;DHT22;30214;52.246;14.408;2022-12-29T09:21:22;10.80;99.90
44509;DHT22;30214;52.246;14.408;2022-12-29T09:23:49;10.80;99.90
44509;DHT22;30214;52.246;14.408;2022-12-29T09:26:16;10.90;99.90
44509;DHT22;30214;52.246;14.408;2022-12-29T09:28:44;11.00;99.90
44509;DHT22;30214;52.246;14.408;2022-12-29T09:31:11;11.10;99.90
44509;DHT22;30214;52.246;14.408;2022-12-29T09:33:39;11.10;99.90
44509;DHT22;30214;52.246;14.408;2022-12-29T09:36:08;11.20;99.90
44509;DHT22;30214;52.246;14.408;2022-12-29T09:38:36;11.10;99.90
44509;DHT22;30214;52.246;14.408;2022-12-29T09:41:10;11.10;99.90
44509;DHT22;30214;52.246;14.408;2022-12-29T09:44:03;11.10;99.90
44509;DHT22;30214;52.246;14.408;2022-12-29T09:46:36;11.00;99.90
44509;DHT22;30214;52.246;14.408;2022-12-29T09:49:14;11.10;99.90
44509;DHT22;30214;52.246;14.408;2022-12-29T09:51:49;11.20;99.90
44509;DHT22;30214;52.246;14.408;2022-12-29T09:54:30;11.20;99.90
44509;DHT22;30214;52.246;14.408;2022-12-29T09:57:46;11.30;99.90
44509;DHT22;30214;52.246;14.408;2022-12-29T10:00:16;11.40;99.90
44509;DHT22;30214;52.246;14.408;2022-12-29T10:02:49;11.40;99.90
44509;DHT22;30214;52.246;14.408;2022-12-29T10:05:27;11.40;99.90
44509;DHT22;30214;52.246;14.408;2022-12-29T10:08:06;11.50;99.90
44509;DHT22;30214;52.246;14.408;2022-12-29T10:10:43;11.60;99.90
44509;DHT22;30214;52.246;14.408;2022-12-29T10:13:26;11.70;99.90
44509;DHT22;30214;52.246;14.408;2022-12-29T10:16:02;11.80;99.90
44509;DHT22;30214;52.246;14.408;2022-12-29T10:18:44;11.90;99.90
44509;DHT22;30214;52.246;14.408;2022-12-29T10:21:25;11.80;99.90
44509;DHT22;30214;52.246;14.408;2022-12-29T10:24:01;11.90;99.90
44509;DHT22;30214;52.246;14.408;2022-12-29T10:26:37;11.80;99.90
44509;DHT22;30214;52.246;14.408;2022-12-29T10:29:06;12.00;99.90
44509;DHT22;30214;52.246;14.408;2022-12-29T10:31:43;11.90;99.90
44509;DHT22;30214;52.246;14.408;2022-12-29T10:34:19;12.00;99.90
44509;DHT22;30214;52.246;14.408;2022-12-29T10:36:50;12.00;99.90
44509;DHT22;30214;52.246;14.408;2022-12-29T10:39:28;12.00;99.90
44509;DHT22;30214;52.246;14.408;2022-12-29T10:42:07;12.10;99.90
44509;DHT22;30214;52.246;14.408;2022-12-29T10:44:37;12.20;99.90
44509;DHT22;30214;52.246;14.408;2022-12-29T10:47:09;12.30;99.90
44509;DHT22;30214;52.246;14.408;2022-12-29T10:49:40;12.30;99.90
44509;DHT22;30214;52.246;14.408;2022-12-29T10:52:09;12.40;99.90
44509;DHT22;30214;52.246;14.408;2022-12-29T10:54:42;12.50;99.90
44509;DHT22;30214;52.246;14.408;2022-12-29T10:57:18;12.50;99.90
44509;DHT22;30214;52.246;14.408;2022-12-29T10:59:51;12.60;99.90
44509;DHT22;30214;52.246;14.408;2022-12-29T11:02:33;12.50;99.90
44509;DHT22;30214;52.246;14.408;2022-12-29T11:05:16;12.60;99.90
44509;DHT22;30214;52.246;14.408;2022-12-29T11:07:48;12.60;99.90
44509;DHT22;30214;52.246;14.408;2022-12-29T11:10:18;12.70;99.90
44509;DHT22;30214;52.246;14.408;2022-12-29T11:12:59;12.70;99.90
44509;DHT22;30214;52.246;14.408;2022-12-29T11:15:38;12.60;99.90
44509;DHT22;30214;52.246;14.408;2022-12-29T11:18:18;12.70;99.90
44509;DHT22;30214;52.246;14.408;2022-12-29T11:20:47;12.60;99.90
44509;DHT22;30214;52.246;14.408;2022-12-29T11:23:25;12.60;99.90
44509;DHT22;30214;52.246;14.408;2022-12-29T11:26:13;12.60;99.90
44509;DHT22;30214;52.246;14.408;2022-12-29T11:28:45;12.60;99.90
44509;DHT22;30214;52.246;14.408;2022-12-29T11:31:16;12.60;99.90
44509;DHT22;30214;52.246;14.408;2022-12-29T11:33:44;12.70;99.90
44509;DHT22;30214;52.246;14.408;2022-12-29T11:36:14;12.70;99.90
44509;DHT22;30214;52.246;14.408;2022-12-29T11:38:47;12.70;99.90
44509;DHT22;30214;52.246;14.408;2022-12-29T11:41:21;12.70;99.90
44509;DHT22;30214;52.246;14.408;2022-12-29T11:43:51;12.70;99.90
44509;DHT22;30214;52.246;14.408;2022-12-29T11:46:22;12.70;99.90
44509;DHT22;30214;52.246;14.408;2022-12-29T11:48:51;12.60;99.90
44509;DHT22;30214;52.246;14.408;2022-12-29T11:51:22;12.60;99.90
44509;DHT22;30214;52.246;14.408;2022-12-29T11:53:52;12.60;99.90
44509;DHT22;30214;52.246;14.408;2022-12-29T11:56:34;12.60;99.90
44509;DHT22;30214;52.246;14.408;2022-12-29T11:59:38;12.60;99.90
44509;DHT22;30214;52.246;14.408;2022-12-29T12:02:35;12.60;99.90
44509;DHT22;30214;52.246;14.408;2022-12-29T12:05:13;12.60;99.90
44509;DHT22;30214;52.246;14.408;2022-12-29T12:07:57;12.50;99.90
44509;DHT22;30214;52.246;14.408;2022-12-29T12:10:31;12.50;99.90
44509;DHT22;30214;52.246;14.408;2022-12-29T12:13:07;12.50;99.90
44509;DHT22;30214;52.246;14.408;2022-12-29T12:15:41;12.50;99.90
44509;DHT22;30214;52.246;14.408;2022-12-29T12:18:13;12.50;99.90
44509;DHT22;30214;52.246;14.408;2022-12-29T12:20:45;12.60;99.90
44509;DHT22;30214;52.246;14.408;2022-12-29T12:23:32;12.60;99.90
44509;DHT22;30214;52.246;14.408;2022-12-29T12:26:11;12.60;99.90
44509;DHT22;30214;52.246;14.408;2022-12-29T12:28:48;12.60;99.90
44509;DHT22;30214;52.246;14.408;2022-12-29T12:31:31;12.70;99.90
44509;DHT22;30214;52.246;14.408;2022-12-29T12:34:11;12.70;99.90
44509;DHT22;30214;52.246;14.408;2022-12-29T12:37:12;12.70;99.90
44509;DHT22;30214;52.246;14.408;2022-12-29T12:39:54;12.70;99.90
44509;DHT22;30214;52.246;14.408;2022-12-29T12:42:42;12.70;99.90
44509;DHT22;30214;52.246;14.408;2022-12-29T12:45:49;12.70;99.90
44509;DHT22;30214;52.246;14.408;2022-12-29T12:48:42;12.70;99.90
44509;DHT22;30214;52.246;14.408;2022-12-29T12:51:20;12.70;99.90
44509;DHT22;30214;52.246;14.408;2022-12-29T12:54:09;12.60;99.90
44509;DHT22;30214;52.246;14.408;2022-12-29T12:57:03;12.70;99.90
44509;DHT22;30214;52.246;14.408;2022-12-29T12:59:43;12.70;99.90
44509;DHT22;30214;52.246;14.408;2022-12-29T13:02:31;12.70;99.90
44509;DHT22;30214;52.246;14.408;2022-12-29T13:05:49;12.50;99.90
44509;DHT22;30214;52.246;14.408;2022-12-29T13:12:01;12.60;99.90
44509;DHT22;30214;52.246;14.408;2022-12-29T13:14:42;12.60;99.90
44509;DHT22;30214;52.246;14.408;2022-12-29T13:17:18;12.70;99.90
44509;DHT22;30214;52.246;14.408;2022-12-29T13:19:54;12.70;99.90
44509;DHT22;30214;52.246;14.408;2022-12-29T13:22:32;12.70;99.90
44509;DHT22;30214;52.246;14.408;2022-12-29T13:25:21;12.70;99.90
44509;DHT22;30214;52.246;14.408;2022-12-29T13:27:59;12.60;99.90
44509;DHT22;30214;52.246;14.408;2022-12-29T13:30:33;12.70;99.90
44509;DHT22;30214;52.246;14.408;2022-12-29T13:33:07;12.60;99.90
44509;DHT22;30214;52.246;14.408;2022-12-29T13:35:54;12.60;99.90
44509;DHT22;30214;52.246;14.408;2022-12-29T13:38:29;12.60;99.90
44509;DHT22;30214;52.246;14.408;2022-12-29T13:41:02;12.50;99.90
44509;DHT22;30214;52.246;14.408;2022-12-29T13:43:34;12.50;99.90
44509;DHT22;30214;52.246;14.408;2022-12-29T13:46:07;12.50;99.90
44509;DHT22;30214;52.246;14.408;2022-12-29T13:48:40;12.50;99.90
44509;DHT22;30214;52.246;14.408;2022-12-29T13:51:11;12.40;99.90
44509;DHT22;30214;52.246;14.408;2022-12-29T13:53:55;12.50;99.90
44509;DHT22;30214;52.246;14.408;2022-12-29T13:56:36;12.40;99.90
44509;DHT22;30214;52.246;14.408;2022-12-29T13:59:13;12.40;99.90
44509;DHT22;30214;52.246;14.408;2022-12-29T14:01:50;12.40;99.90
44509;DHT22;30214;52.246;14.408;2022-12-29T14:04:23;12.30;99.90
44509;DHT22;30214;52.246;14.408;2022-12-29T14:07:00;12.30;99.90
44509;DHT22;30214;52.246;14.408;2022-12-29T14:09:42;12.40;99.90
44509;DHT22;30214;52.246;14.408;2022-12-29T14:12:21;12.30;99.90
44509;DHT22;30214;52.246;14.408;2022-12-29T14:15:04;12.20;99.90
44509;DHT22;30214;52.246;14.408;2022-12-29T14:17:43;12.30;99.90
44509;DHT22;30214;52.246;14.408;2022-12-29T14:20:18;12.20;99.90
44509;DHT22;30214;52.246;14.408;2022-12-29T14:22:58;12.20;99.90
44509;DHT22;30214;52.246;14.408;2022-12-29T14:28:43;12.00;99.90
44509;DHT22;30214;52.246;14.408;2022-12-29T14:31:33;12.10;99.90
44509;DHT22;30214;52.246;14.408;2022-12-29T14:34:23;12.00;99.90
44509;DHT22;30214;52.246;14.408;2022-12-29T14:36:55;12.00;99.90
44509;DHT22;30214;52.246;14.408;2022-12-29T14:39:36;12.00;99.90
44509;DHT22;30214;52.246;14.408;2022-12-29T14:42:10;12.00;99.90
44509;DHT22;30214;52.246;14.408;2022-12-29T14:44:47;11.90;99.90
44509;DHT22;30214;52.246;14.408;2022-12-29T14:47:19;11.90;99.90
44509;DHT22;30214;52.246;14.408;2022-12-29T14:49:47;12.00;99.90
44509;DHT22;30214;52.246;14.408;2022-12-29T14:52:18;11.90;99.90
44509;DHT22;30214;52.246;14.408;2022-12-29T14:54:49;11.90;99.90
44509;DHT22;30214;52.246;14.408;2022-12-29T14:57:35;11.80;99.90
44509;DHT22;30214;52.246;14.408;2022-12-29T15:00:16;11.70;99.90
44509;DHT22;30214;52.246;14.408;2022-12-29T15:02:53;11.60;99.90
44509;DHT22;30214;52.246;14.408;2022-12-29T15:05:30;11.60;99.90
44509;DHT22;30214;52.246;14.408;2022-12-29T15:08:00;11.50;99.90
44509;DHT22;30214;52.246;14.408;2022-12-29T15:10:36;11.50;99.90
44509;DHT22;30214;52.246;14.408;2022-12-29T15:13:15;11.50;99.90
44509;DHT22;30214;52.246;14.408;2022-12-29T15:15:43;11.50;99.90
44509;DHT22;30214;52.246;14.408;2022-12-29T15:18:28;11.50;99.90
44509;DHT22;30214;52.246;14.408;2022-12-29T15:20:58;11.40;99.90
44509;DHT22;30214;52.246;14.408;2022-12-29T15:23:29;11.30;99.90
44509;DHT22;30214;52.246;14.408;2022-12-29T15:25:59;11.30;99.90
44509;DHT22;30214;52.246;14.408;2022-12-29T15:28:37;11.40;99.90
44509;DHT22;30214;52.246;14.408;2022-12-29T15:31:09;11.40;99.90
44509;DHT22;30214;52.246;14.408;2022-12-29T15:33:40;11.50;99.90
44509;DHT22;30214;52.246;14.408;2022-12-29T15:36:12;11.50;99.90
44509;DHT22;30214;52.246;14.408;2022-12-29T15:38:40;11.50;99.90
44509;DHT22;30214;52.246;14.408;2022-12-29T15:41:18;11.50;99.90
44509;DHT22;30214;52.246;14.408;2022-12-29T15:44:09;11.50;99.90
44509;DHT22;30214;52.246;14.408;2022-12-29T15:46:42;11.50;99.90
44509;DHT22;30214;52.246;14.408;2022-12-29T15:49:13;11.50;99.90
44509;DHT22;30214;52.246;14.408;2022-12-29T15:51:42;11.40;99.90
44509;DHT22;30214;52.246;14.408;2022-12-29T15:54:15;11.40;99.90
44509;DHT22;30214;52.246;14.408;2022-12-29T15:56:48;11.50;99.90
44509;DHT22;30214;52.246;14.408;2022-12-29T15:59:26;11.50;99.90
44509;DHT22;30214;52.246;14.408;2022-12-29T16:01:55;11.60;99.90
44509;DHT22;30214;52.246;14.408;2022-12-29T16:04:25;11.60;99.90
44509;DHT22;30214;52.246;14.408;2022-12-29T16:06:58;11.60;99.90
44509;DHT22;30214;52.246;14.408;2022-12-29T16:09:31;11.70;99.90
44509;DHT22;30214;52.246;14.408;2022-12-29T16:12:02;11.70;99.90
44509;DHT22;30214;52.246;14.408;2022-12-29T16:14:36;11.70;99.90
44509;DHT22;30214;52.246;14.408;2022-12-29T16:17:10;11.70;99.90
44509;DHT22;30214;52.246;14.408;2022-12-29T16:19:48;11.70;99.90
44509;DHT22;30214;52.246;14.408;2022-12-29T16:22:22;11.80;99.90
44509;DHT22;30214;52.246;14.408;2022-12-29T16:24:56;11.80;99.90
44509;DHT22;30214;52.246;14.408;2022-12-29T16:27:31;11.80;99.90
44509;DHT22;30214;52.246;14.408;2022-12-29T16:30:04;11.80;99.90